sensor_id;sensor_type;location;lat;lon;timestamp;temperature;humidity
24049;DHT22;12250;50.956;4.746;2023-04-15T00:02:21;8.40;99.90
24049;DHT22;12250;50.956;4.746;2023-04-15T00:04:47;8.50;99.90
24049;DHT22;12250;50.956;4.746;2023-04-15T00:07:13;8.50;99.90
24049;DHT22;12250;50.956;4.746;2023-04-15T00:09:40;8.60;99.90
24049;DHT22;12250;50.956;4.746;2023-04-15T00:12:06;8.60;99.90
24049;DHT22;12250;50.956;4.746;2023-04-15T00:14:33;8.60;99.90
24049;DHT22;12250;50.956;4.746;2023-04-15T00:17:01;8.70;99.90
24049;DHT22;12250;50.956;4.746;2023-04-15T00:19:26;8.70;99.90
24049;DHT22;12250;50.956;4.746;2023-04-15T00:21:52;8.70;99.90
24049;DHT22;12250;50.956;4.746;2023-04-15T00:24:17;8.80;99.90
24049;DHT22;12250;50.956;4.746;2023-04-15T00:26:43;8.80;99.90
24049;DHT22;12250;50.956;4.746;2023-04-15T00:29:09;8.90;99.90
24049;DHT22;12250;50.956;4.746;2023-04-15T00:31:35;8.90;99.90
24049;DHT22;12250;50.956;4.746;2023-04-15T00:34:01;8.90;99.90
24049;DHT22;12250;50.956;4.746;2023-04-15T00:36:26;8.90;99.90
24049;DHT22;12250;50.956;4.746;2023-04-15T00:38:52;8.90;99.90
24049;DHT22;12250;50.956;4.746;2023-04-15T00:41:18;9.00;99.90
24049;DHT22;12250;50.956;4.746;2023-04-15T00:43:45;9.00;99.90
24049;DHT22;12250;50.956;4.746;2023-04-15T00:46:13;9.00;99.90
24049;DHT22;12250;50.956;4.746;2023-04-15T00:48:40;9.00;99.90
24049;DHT22;12250;50.956;4.746;2023-04-15T00:51:06;9.00;99.90
24049;DHT22;12250;50.956;4.746;2023-04-15T00:53:34;9.00;99.90
24049;DHT22;12250;50.956;4.746;2023-04-15T00:55:59;9.00;99.90
24049;DHT22;12250;50.956;4.746;2023-04-15T00:58:25;9.00;99.90
24049;DHT22;12250;50.956;4.746;2023-04-15T01:00:53;9.10;99.90
24049;DHT22;12250;50.956;4.746;2023-04-15T01:03:20;9.10;99.90
24049;DHT22;12250;50.956;4.746;2023-04-15T01:05:46;9.00;99.90
24049;DHT22;12250;50.956;4.746;2023-04-15T01:08:11;9.10;99.90
24049;DHT22;12250;50.956;4.746;2023-04-15T01:10:37;9.10;99.90
24049;DHT22;12250;50.956;4.746;2023-04-15T01:13:04;9.00;99.90
24049;DHT22;12250;50.956;4.746;2023-04-15T01:15:30;9.10;99.90
24049;DHT22;12250;50.956;4.746;2023-04-15T01:17:57;9.10;99.90
24049;DHT22;12250;50.956;4.746;2023-04-15T01:20:23;9.10;99.90
24049;DHT22;12250;50.956;4.746;2023-04-15T01:22:49;9.10;99.90
24049;DHT22;12250;50.956;4.746;2023-04-15T01:25:23;9.10;99.90
24049;DHT22;12250;50.956;4.746;2023-04-15T01:27:50;9.10;99.90
24049;DHT22;12250;50.956;4.746;2023-04-15T01:30:16;9.10;99.90
24049;DHT22;12250;50.956;4.746;2023-04-15T01:32:41;9.10;99.90
24049;DHT22;12250;50.956;4.746;2023-04-15T01:35:07;9.10;99.90
24049;DHT22;12250;50.956;4.746;2023-04-15T01:37:33;9.10;99.90
24049;DHT22;12250;50.956;4.746;2023-04-15T01:39:59;9.10;99.90
24049;DHT22;12250;50.956;4.746;2023-04-15T01:42:24;9.10;99.90
24049;DHT22;12250;50.956;4.746;2023-04-15T01:44:50;9.10;99.90
24049;DHT22;12250;50.956;4.746;2023-04-15T01:47:16;9.10;99.90
24049;DHT22;12250;50.956;4.746;2023-04-15T01:49:42;9.10;99.90
24049;DHT22;12250;50.956;4.746;2023-04-15T01:52:07;9.10;99.90
24049;DHT22;12250;50.956;4.746;2023-04-15T01:54:33;9.20;99.90
24049;DHT22;12250;50.956;4.746;2023-04-15T01:56:59;9.20;99.90
24049;DHT22;12250;50.956;4.746;2023-04-15T01:59:24;9.00;99.90
24049;DHT22;12250;50.956;4.746;2023-04-15T02:01:51;9.00;99.90
24049;DHT22;12250;50.956;4.746;2023-04-15T02:04:16;9.00;99.90
24049;DHT22;12250;50.956;4.746;2023-04-15T02:06:42;9.00;99.90
24049;DHT22;12250;50.956;4.746;2023-04-15T02:09:09;9.10;99.90
24049;DHT22;12250;50.956;4.746;2023-04-15T02:11:35;9.20;99.90
24049;DHT22;12250;50.956;4.746;2023-04-15T02:14:04;9.10;99.90
24049;DHT22;12250;50.956;4.746;2023-04-15T02:16:31;9.10;99.90
24049;DHT22;12250;50.956;4.746;2023-04-15T02:18:57;9.00;99.90
24049;DHT22;12250;50.956;4.746;2023-04-15T02:21:25;9.10;99.90
24049;DHT22;12250;50.956;4.746;2023-04-15T02:23:51;9.00;99.90
24049;DHT22;12250;50.956;4.746;2023-04-15T02:26:18;9.10;99.90
24049;DHT22;12250;50.956;4.746;2023-04-15T02:28:44;9.10;99.90
24049;DHT22;12250;50.956;4.746;2023-04-15T02:31:09;9.10;99.90
24049;DHT22;12250;50.956;4.746;2023-04-15T02:33:35;9.10;99.90
24049;DHT22;12250;50.956;4.746;2023-04-15T02:36:02;9.20;99.90
24049;DHT22;12250;50.956;4.746;2023-04-15T02:38:28;9.20;99.90
24049;DHT22;12250;50.956;4.746;2023-04-15T02:40:55;9.20;99.90
24049;DHT22;12250;50.956;4.746;2023-04-15T02:43:21;9.20;99.90
24049;DHT22;12250;50.956;4.746;2023-04-15T02:45:47;9.20;99.90
24049;DHT22;12250;50.956;4.746;2023-04-15T02:48:13;9.20;99.90
24049;DHT22;12250;50.956;4.746;2023-04-15T02:50:39;9.20;99.90
24049;DHT22;12250;50.956;4.746;2023-04-15T02:53:05;9.30;99.90
24049;DHT22;12250;50.956;4.746;2023-04-15T02:55:31;9.30;99.90
24049;DHT22;12250;50.956;4.746;2023-04-15T02:57:57;9.20;99.90
24049;DHT22;12250;50.956;4.746;2023-04-15T03:00:25;9.30;99.90
24049;DHT22;12250;50.956;4.746;2023-04-15T03:02:51;9.30;99.90
24049;DHT22;12250;50.956;4.746;2023-04-15T03:05:21;9.30;99.90
24049;DHT22;12250;50.956;4.746;2023-04-15T03:07:52;9.40;99.90
24049;DHT22;12250;50.956;4.746;2023-04-15T03:10:18;9.30;99.90
24049;DHT22;12250;50.956;4.746;2023-04-15T03:12:44;9.30;99.90
24049;DHT22;12250;50.956;4.746;2023-04-15T03:15:10;9.30;99.90
24049;DHT22;12250;50.956;4.746;2023-04-15T03:17:36;9.40;99.90
24049;DHT22;12250;50.956;4.746;2023-04-15T03:20:04;9.30;99.90
24049;DHT22;12250;50.956;4.746;2023-04-15T03:22:30;9.40;99.90
24049;DHT22;12250;50.956;4.746;2023-04-15T03:24:56;9.30;99.90
24049;DHT22;12250;50.956;4.746;2023-04-15T03:27:22;9.20;99.90
24049;DHT22;12250;50.956;4.746;2023-04-15T03:29:48;9.20;99.90
24049;DHT22;12250;50.956;4.746;2023-04-15T03:32:14;9.30;99.90
24049;DHT22;12250;50.956;4.746;2023-04-15T03:34:40;9.30;99.90
24049;DHT22;12250;50.956;4.746;2023-04-15T03:37:06;9.20;99.90
24049;DHT22;12250;50.956;4.746;2023-04-15T03:39:33;9.20;99.90
24049;DHT22;12250;50.956;4.746;2023-04-15T03:41:59;9.20;99.90
24049;DHT22;12250;50.956;4.746;2023-04-15T03:44:26;9.20;99.90
24049;DHT22;12250;50.956;4.746;2023-04-15T03:46:52;9.10;99.90
24049;DHT22;12250;50.956;4.746;2023-04-15T03:49:18;9.10;99.90
24049;DHT22;12250;50.956;4.746;2023-04-15T03:51:44;9.10;99.90
24049;DHT22;12250;50.956;4.746;2023-04-15T03:54:10;9.10;99.90
24049;DHT22;12250;50.956;4.746;2023-04-15T03:56:37;9.10;99.90
24049;DHT22;12250;50.956;4.746;2023-04-15T03:59:02;9.10;99.90
24049;DHT22;12250;50.956;4.746;2023-04-15T04:01:28;9.10;99.90
24049;DHT22;12250;50.956;4.746;2023-04-15T04:03:53;9.10;99.90
24049;DHT22;12250;50.956;4.746;2023-04-15T04:06:19;9.10;99.90
24049;DHT22;12250;50.956;4.746;2023-04-15T04:08:45;9.00;99.90
24049;DHT22;12250;50.956;4.746;2023-04-15T04:11:10;9.10;99.90
24049;DHT22;12250;50.956;4.746;2023-04-15T04:13:36;9.00;99.90
24049;DHT22;12250;50.956;4.746;2023-04-15T04:16:02;9.00;99.90
24049;DHT22;12250;50.956;4.746;2023-04-15T04:18:32;8.90;99.90
24049;DHT22;12250;50.956;4.746;2023-04-15T04:20:58;8.90;99.90
24049;DHT22;12250;50.956;4.746;2023-04-15T04:23:24;8.90;99.90
24049;DHT22;12250;50.956;4.746;2023-04-15T04:25:49;8.80;99.90
24049;DHT22;12250;50.956;4.746;2023-04-15T04:28:15;8.90;99.90
24049;DHT22;12250;50.956;4.746;2023-04-15T04:30:41;8.90;99.90
24049;DHT22;12250;50.956;4.746;2023-04-15T04:33:07;8.80;99.90
24049;DHT22;12250;50.956;4.746;2023-04-15T04:35:32;8.80;99.90
24049;DHT22;12250;50.956;4.746;2023-04-15T04:37:59;8.70;99.90
24049;DHT22;12250;50.956;4.746;2023-04-15T04:40:25;8.80;99.90
24049;DHT22;12250;50.956;4.746;2023-04-15T04:42:52;8.80;99.90
24049;DHT22;12250;50.956;4.746;2023-04-15T04:45:18;8.80;99.90
24049;DHT22;12250;50.956;4.746;2023-04-15T04:47:44;8.90;99.90
24049;DHT22;12250;50.956;4.746;2023-04-15T04:50:11;8.80;99.90
24049;DHT22;12250;50.956;4.746;2023-04-15T04:52:37;8.90;99.90
24049;DHT22;12250;50.956;4.746;2023-04-15T04:55:03;8.90;99.90
24049;DHT22;12250;50.956;4.746;2023-04-15T04:57:29;8.90;99.90
24049;DHT22;12250;50.956;4.746;2023-04-15T04:59:54;9.00;99.90
24049;DHT22;12250;50.956;4.746;2023-04-15T05:02:20;9.00;99.90
24049;DHT22;12250;50.956;4.746;2023-04-15T05:04:46;9.00;99.90
24049;DHT22;12250;50.956;4.746;2023-04-15T05:07:11;9.00;99.90
24049;DHT22;12250;50.956;4.746;2023-04-15T05:09:37;9.10;99.90
24049;DHT22;12250;50.956;4.746;2023-04-15T05:12:03;9.20;99.90
24049;DHT22;12250;50.956;4.746;2023-04-15T05:14:29;9.20;99.90
24049;DHT22;12250;50.956;4.746;2023-04-15T05:16:55;9.30;99.90
24049;DHT22;12250;50.956;4.746;2023-04-15T05:19:21;9.40;99.90
24049;DHT22;12250;50.956;4.746;2023-04-15T05:21:46;9.40;99.90
24049;DHT22;12250;50.956;4.746;2023-04-15T05:24:12;9.50;99.90
24049;DHT22;12250;50.956;4.746;2023-04-15T05:26:38;9.60;99.90
24049;DHT22;12250;50.956;4.746;2023-04-15T05:29:03;9.60;99.90
24049;DHT22;12250;50.956;4.746;2023-04-15T05:31:29;9.70;99.90
24049;DHT22;12250;50.956;4.746;2023-04-15T05:33:55;9.70;99.90
24049;DHT22;12250;50.956;4.746;2023-04-15T05:36:20;9.70;99.90
24049;DHT22;12250;50.956;4.746;2023-04-15T05:38:46;9.80;99.90
24049;DHT22;12250;50.956;4.746;2023-04-15T05:41:12;9.80;99.90
24049;DHT22;12250;50.956;4.746;2023-04-15T05:43:40;9.90;99.90
24049;DHT22;12250;50.956;4.746;2023-04-15T05:46:05;9.90;99.90
24049;DHT22;12250;50.956;4.746;2023-04-15T05:48:31;9.90;99.90
24049;DHT22;12250;50.956;4.746;2023-04-15T05:50:57;9.90;99.90
24049;DHT22;12250;50.956;4.746;2023-04-15T05:53:23;10.00;99.90
24049;DHT22;12250;50.956;4.746;2023-04-15T05:55:48;10.10;99.90
24049;DHT22;12250;50.956;4.746;2023-04-15T05:58:14;10.10;99.90
24049;DHT22;12250;50.956;4.746;2023-04-15T06:00:39;10.20;99.90
24049;DHT22;12250;50.956;4.746;2023-04-15T06:03:05;10.30;99.90
24049;DHT22;12250;50.956;4.746;2023-04-15T06:05:32;10.40;99.90
24049;DHT22;12250;50.956;4.746;2023-04-15T06:07:57;10.50;99.90
24049;DHT22;12250;50.956;4.746;2023-04-15T06:10:23;10.60;99.90
24049;DHT22;12250;50.956;4.746;2023-04-15T06:12:49;10.60;99.90
24049;DHT22;12250;50.956;4.746;2023-04-15T06:15:14;10.70;99.90
24049;DHT22;12250;50.956;4.746;2023-04-15T06:17:41;10.60;99.90
24049;DHT22;12250;50.956;4.746;2023-04-15T06:20:07;10.70;99.90
24049;DHT22;12250;50.956;4.746;2023-04-15T06:22:33;10.80;99.90
24049;DHT22;12250;50.956;4.746;2023-04-15T06:24:58;10.80;99.90
24049;DHT22;12250;50.956;4.746;2023-04-15T06:27:24;10.90;99.90
24049;DHT22;12250;50.956;4.746;2023-04-15T06:29:50;11.10;99.90
24049;DHT22;12250;50.956;4.746;2023-04-15T06:32:15;11.40;99.90
24049;DHT22;12250;50.956;4.746;2023-04-15T06:34:41;11.50;99.90
24049;DHT22;12250;50.956;4.746;2023-04-15T06:37:07;11.70;99.90
24049;DHT22;12250;50.956;4.746;2023-04-15T06:39:34;11.80;99.90
24049;DHT22;12250;50.956;4.746;2023-04-15T06:42:00;12.10;99.90
24049;DHT22;12250;50.956;4.746;2023-04-15T06:44:25;12.30;99.90
24049;DHT22;12250;50.956;4.746;2023-04-15T06:46:51;12.50;99.90
24049;DHT22;12250;50.956;4.746;2023-04-15T06:49:17;12.70;99.90
24049;DHT22;12250;50.956;4.746;2023-04-15T06:51:42;12.90;99.90
24049;DHT22;12250;50.956;4.746;2023-04-15T06:54:08;13.00;99.90
24049;DHT22;12250;50.956;4.746;2023-04-15T06:56:34;13.40;99.90
24049;DHT22;12250;50.956;4.746;2023-04-15T06:59:00;13.50;99.90
24049;DHT22;12250;50.956;4.746;2023-04-15T07:01:25;13.70;99.90
24049;DHT22;12250;50.956;4.746;2023-04-15T07:03:52;13.90;99.90
24049;DHT22;12250;50.956;4.746;2023-04-15T07:06:17;14.00;99.40
24049;DHT22;12250;50.956;4.746;2023-04-15T07:08:43;13.70;99.50
24049;DHT22;12250;50.956;4.746;2023-04-15T07:11:09;14.20;99.50
24049;DHT22;12250;50.956;4.746;2023-04-15T07:13:34;14.80;98.90
24049;DHT22;12250;50.956;4.746;2023-04-15T07:16:01;15.30;98.00
24049;DHT22;12250;50.956;4.746;2023-04-15T07:18:26;15.70;96.50
24049;DHT22;12250;50.956;4.746;2023-04-15T07:20:52;16.40;95.00
24049;DHT22;12250;50.956;4.746;2023-04-15T07:23:18;15.90;94.30
24049;DHT22;12250;50.956;4.746;2023-04-15T07:25:43;15.40;95.60
24049;DHT22;12250;50.956;4.746;2023-04-15T07:28:09;15.30;95.50
24049;DHT22;12250;50.956;4.746;2023-04-15T07:30:35;15.20;94.80
24049;DHT22;12250;50.956;4.746;2023-04-15T07:33:01;14.90;94.50
24049;DHT22;12250;50.956;4.746;2023-04-15T07:35:27;14.80;94.70
24049;DHT22;12250;50.956;4.746;2023-04-15T07:37:53;14.90;94.50
24049;DHT22;12250;50.956;4.746;2023-04-15T07:40:19;15.30;93.90
24049;DHT22;12250;50.956;4.746;2023-04-15T07:42:45;16.30;93.30
24049;DHT22;12250;50.956;4.746;2023-04-15T07:45:11;17.40;87.30
24049;DHT22;12250;50.956;4.746;2023-04-15T07:47:37;18.70;79.60
24049;DHT22;12250;50.956;4.746;2023-04-15T07:50:03;18.70;78.40
24049;DHT22;12250;50.956;4.746;2023-04-15T07:52:29;20.00;74.80
24049;DHT22;12250;50.956;4.746;2023-04-15T07:54:55;21.00;68.30
24049;DHT22;12250;50.956;4.746;2023-04-15T07:57:21;22.40;63.10
24049;DHT22;12250;50.956;4.746;2023-04-15T07:59:46;23.90;59.60
24049;DHT22;12250;50.956;4.746;2023-04-15T08:02:12;24.50;53.70
24049;DHT22;12250;50.956;4.746;2023-04-15T08:04:38;24.50;52.50
24049;DHT22;12250;50.956;4.746;2023-04-15T08:07:04;25.30;50.20
24049;DHT22;12250;50.956;4.746;2023-04-15T08:09:30;26.70;46.50
24049;DHT22;12250;50.956;4.746;2023-04-15T08:11:56;27.30;43.40
24049;DHT22;12250;50.956;4.746;2023-04-15T08:14:22;26.20;44.90
24049;DHT22;12250;50.956;4.746;2023-04-15T08:16:48;27.80;43.10
24049;DHT22;12250;50.956;4.746;2023-04-15T08:19:14;27.60;41.90
24049;DHT22;12250;50.956;4.746;2023-04-15T08:21:40;28.80;40.20
24049;DHT22;12250;50.956;4.746;2023-04-15T08:24:06;28.70;39.00
24049;DHT22;12250;50.956;4.746;2023-04-15T08:26:32;28.90;39.40
24049;DHT22;12250;50.956;4.746;2023-04-15T08:28:58;28.50;37.80
24049;DHT22;12250;50.956;4.746;2023-04-15T08:31:26;27.10;39.70
24049;DHT22;12250;50.956;4.746;2023-04-15T08:33:53;25.80;41.10
24049;DHT22;12250;50.956;4.746;2023-04-15T08:36:21;26.60;41.60
24049;DHT22;12250;50.956;4.746;2023-04-15T08:38:46;28.70;41.10
24049;DHT22;12250;50.956;4.746;2023-04-15T08:41:23;29.80;37.00
24049;DHT22;12250;50.956;4.746;2023-04-15T08:44:01;28.80;37.60
24049;DHT22;12250;50.956;4.746;2023-04-15T08:46:29;29.10;37.60
24049;DHT22;12250;50.956;4.746;2023-04-15T08:48:57;28.90;38.60
24049;DHT22;12250;50.956;4.746;2023-04-15T08:51:23;28.50;37.70
24049;DHT22;12250;50.956;4.746;2023-04-15T08:53:49;27.60;39.10
24049;DHT22;12250;50.956;4.746;2023-04-15T08:56:15;27.20;40.20
24049;DHT22;12250;50.956;4.746;2023-04-15T08:58:45;28.60;38.60
24049;DHT22;12250;50.956;4.746;2023-04-15T09:01:12;29.20;37.00
24049;DHT22;12250;50.956;4.746;2023-04-15T09:03:38;27.30;37.80
24049;DHT22;12250;50.956;4.746;2023-04-15T09:06:05;27.40;39.20
24049;DHT22;12250;50.956;4.746;2023-04-15T09:08:31;26.90;38.70
24049;DHT22;12250;50.956;4.746;2023-04-15T09:10:59;27.80;39.20
24049;DHT22;12250;50.956;4.746;2023-04-15T09:13:24;27.70;38.00
24049;DHT22;12250;50.956;4.746;2023-04-15T09:15:51;27.50;38.70
24049;DHT22;12250;50.956;4.746;2023-04-15T09:18:28;26.40;39.60
24049;DHT22;12250;50.956;4.746;2023-04-15T09:20:55;25.80;42.10
24049;DHT22;12250;50.956;4.746;2023-04-15T09:23:21;25.90;41.00
24049;DHT22;12250;50.956;4.746;2023-04-15T09:25:47;26.50;41.30
24049;DHT22;12250;50.956;4.746;2023-04-15T09:28:14;27.20;40.10
24049;DHT22;12250;50.956;4.746;2023-04-15T09:30:42;26.80;39.60
24049;DHT22;12250;50.956;4.746;2023-04-15T09:33:13;26.90;39.50
24049;DHT22;12250;50.956;4.746;2023-04-15T09:35:39;26.80;40.20
24049;DHT22;12250;50.956;4.746;2023-04-15T09:38:07;28.30;38.70
24049;DHT22;12250;50.956;4.746;2023-04-15T09:40:39;29.30;37.30
24049;DHT22;12250;50.956;4.746;2023-04-15T09:43:06;30.50;36.60
24049;DHT22;12250;50.956;4.746;2023-04-15T09:45:33;29.80;35.30
24049;DHT22;12250;50.956;4.746;2023-04-15T09:48:18;29.60;34.80
24049;DHT22;12250;50.956;4.746;2023-04-15T09:50:45;29.20;34.30
24049;DHT22;12250;50.956;4.746;2023-04-15T09:53:18;27.50;36.20
24049;DHT22;12250;50.956;4.746;2023-04-15T09:55:56;27.90;37.70
24049;DHT22;12250;50.956;4.746;2023-04-15T09:58:26;29.00;35.50
24049;DHT22;12250;50.956;4.746;2023-04-15T10:00:54;29.50;34.20
24049;DHT22;12250;50.956;4.746;2023-04-15T10:03:24;29.40;35.30
24049;DHT22;12250;50.956;4.746;2023-04-15T10:05:52;29.20;34.90
24049;DHT22;12250;50.956;4.746;2023-04-15T10:08:20;30.00;35.00
24049;DHT22;12250;50.956;4.746;2023-04-15T10:10:47;30.40;33.70
24049;DHT22;12250;50.956;4.746;2023-04-15T10:13:13;29.70;32.80
24049;DHT22;12250;50.956;4.746;2023-04-15T10:15:44;28.80;32.30
24049;DHT22;12250;50.956;4.746;2023-04-15T10:18:15;29.50;32.50
24049;DHT22;12250;50.956;4.746;2023-04-15T10:20:43;30.20;31.80
24049;DHT22;12250;50.956;4.746;2023-04-15T10:23:09;29.60;30.80
24049;DHT22;12250;50.956;4.746;2023-04-15T10:25:36;29.70;31.20
24049;DHT22;12250;50.956;4.746;2023-04-15T10:28:03;29.20;31.00
24049;DHT22;12250;50.956;4.746;2023-04-15T10:30:31;28.50;33.20
24049;DHT22;12250;50.956;4.746;2023-04-15T10:32:57;29.30;33.30
24049;DHT22;12250;50.956;4.746;2023-04-15T10:35:24;29.50;33.50
24049;DHT22;12250;50.956;4.746;2023-04-15T10:37:50;30.10;33.00
24049;DHT22;12250;50.956;4.746;2023-04-15T10:40:31;30.10;32.70
24049;DHT22;12250;50.956;4.746;2023-04-15T10:42:59;29.40;33.50
24049;DHT22;12250;50.956;4.746;2023-04-15T10:45:27;28.50;32.50
24049;DHT22;12250;50.956;4.746;2023-04-15T10:47:57;27.20;33.30
24049;DHT22;12250;50.956;4.746;2023-04-15T10:50:25;27.50;33.70
24049;DHT22;12250;50.956;4.746;2023-04-15T10:52:52;27.90;32.80
24049;DHT22;12250;50.956;4.746;2023-04-15T10:55:20;28.40;30.50
24049;DHT22;12250;50.956;4.746;2023-04-15T10:57:46;28.40;30.40
24049;DHT22;12250;50.956;4.746;2023-04-15T11:00:17;28.60;28.80
24049;DHT22;12250;50.956;4.746;2023-04-15T11:02:54;28.00;28.20
24049;DHT22;12250;50.956;4.746;2023-04-15T11:08:07;26.70;29.90
24049;DHT22;12250;50.956;4.746;2023-04-15T11:13:03;26.10;33.50
24049;DHT22;12250;50.956;4.746;2023-04-15T11:15:31;26.30;32.70
24049;DHT22;12250;50.956;4.746;2023-04-15T11:18:19;26.00;31.60
24049;DHT22;12250;50.956;4.746;2023-04-15T11:20:48;25.10;33.50
24049;DHT22;12250;50.956;4.746;2023-04-15T11:23:30;23.90;34.40
24049;DHT22;12250;50.956;4.746;2023-04-15T11:25:56;23.10;35.30
24049;DHT22;12250;50.956;4.746;2023-04-15T11:28:27;22.60;37.20
24049;DHT22;12250;50.956;4.746;2023-04-15T11:30:53;22.60;38.80
24049;DHT22;12250;50.956;4.746;2023-04-15T11:33:20;21.90;40.80
24049;DHT22;12250;50.956;4.746;2023-04-15T11:35:46;22.00;40.80
24049;DHT22;12250;50.956;4.746;2023-04-15T11:38:13;21.80;39.80
24049;DHT22;12250;50.956;4.746;2023-04-15T11:40:41;21.20;40.80
24049;DHT22;12250;50.956;4.746;2023-04-15T11:43:14;21.10;40.80
24049;DHT22;12250;50.956;4.746;2023-04-15T11:45:58;20.90;40.70
24049;DHT22;12250;50.956;4.746;2023-04-15T11:48:28;20.30;43.30
24049;DHT22;12250;50.956;4.746;2023-04-15T11:50:55;19.90;43.20
24049;DHT22;12250;50.956;4.746;2023-04-15T11:53:21;19.90;44.60
24049;DHT22;12250;50.956;4.746;2023-04-15T11:55:51;19.70;44.50
24049;DHT22;12250;50.956;4.746;2023-04-15T12:00:59;18.60;44.40
24049;DHT22;12250;50.956;4.746;2023-04-15T12:03:26;18.70;46.40
24049;DHT22;12250;50.956;4.746;2023-04-15T12:11:16;18.30;45.60
24049;DHT22;12250;50.956;4.746;2023-04-15T12:13:47;18.40;46.70
24049;DHT22;12250;50.956;4.746;2023-04-15T12:16:20;18.20;44.30
24049;DHT22;12250;50.956;4.746;2023-04-15T12:18:56;18.20;45.10
24049;DHT22;12250;50.956;4.746;2023-04-15T12:21:25;18.10;45.00
24049;DHT22;12250;50.956;4.746;2023-04-15T12:23:52;18.20;45.50
24049;DHT22;12250;50.956;4.746;2023-04-15T12:26:25;18.20;44.30
24049;DHT22;12250;50.956;4.746;2023-04-15T12:29:04;18.00;44.30
24049;DHT22;12250;50.956;4.746;2023-04-15T12:31:31;17.90;44.70
24049;DHT22;12250;50.956;4.746;2023-04-15T12:33:58;17.90;46.20
24049;DHT22;12250;50.956;4.746;2023-04-15T12:36:24;18.20;46.50
24049;DHT22;12250;50.956;4.746;2023-04-15T12:38:50;18.20;42.50
24049;DHT22;12250;50.956;4.746;2023-04-15T12:41:15;18.10;41.70
24049;DHT22;12250;50.956;4.746;2023-04-15T12:43:43;18.20;45.20
24049;DHT22;12250;50.956;4.746;2023-04-15T12:46:10;18.30;45.30
24049;DHT22;12250;50.956;4.746;2023-04-15T12:48:35;18.30;46.30
24049;DHT22;12250;50.956;4.746;2023-04-15T12:51:01;18.30;45.40
24049;DHT22;12250;50.956;4.746;2023-04-15T12:53:27;17.90;43.80
24049;DHT22;12250;50.956;4.746;2023-04-15T12:55:53;17.80;44.40
24049;DHT22;12250;50.956;4.746;2023-04-15T12:58:19;17.70;44.70
24049;DHT22;12250;50.956;4.746;2023-04-15T13:00:45;17.90;46.00
24049;DHT22;12250;50.956;4.746;2023-04-15T13:03:11;18.20;47.50
24049;DHT22;12250;50.956;4.746;2023-04-15T13:05:37;18.30;46.80
24049;DHT22;12250;50.956;4.746;2023-04-15T13:08:04;18.30;47.20
24049;DHT22;12250;50.956;4.746;2023-04-15T13:10:30;18.50;46.30
24049;DHT22;12250;50.956;4.746;2023-04-15T13:12:56;18.10;46.00
24049;DHT22;12250;50.956;4.746;2023-04-15T13:15:22;18.20;46.40
24049;DHT22;12250;50.956;4.746;2023-04-15T13:17:49;18.30;46.50
24049;DHT22;12250;50.956;4.746;2023-04-15T13:20:15;18.50;46.20
24049;DHT22;12250;50.956;4.746;2023-04-15T13:22:40;18.50;47.50
24049;DHT22;12250;50.956;4.746;2023-04-15T13:25:07;18.60;44.80
24049;DHT22;12250;50.956;4.746;2023-04-15T13:27:33;18.30;44.60
24049;DHT22;12250;50.956;4.746;2023-04-15T13:29:58;18.10;46.90
24049;DHT22;12250;50.956;4.746;2023-04-15T13:32:25;17.90;48.00
24049;DHT22;12250;50.956;4.746;2023-04-15T13:34:50;17.80;48.50
24049;DHT22;12250;50.956;4.746;2023-04-15T13:37:16;17.90;48.50
24049;DHT22;12250;50.956;4.746;2023-04-15T13:39:42;18.00;48.50
24049;DHT22;12250;50.956;4.746;2023-04-15T13:42:07;18.00;48.10
24049;DHT22;12250;50.956;4.746;2023-04-15T13:44:33;18.10;47.90
24049;DHT22;12250;50.956;4.746;2023-04-15T13:47:01;18.20;49.50
24049;DHT22;12250;50.956;4.746;2023-04-15T13:49:26;18.10;49.40
24049;DHT22;12250;50.956;4.746;2023-04-15T13:51:52;17.90;50.30
24049;DHT22;12250;50.956;4.746;2023-04-15T13:54:17;17.60;51.20
24049;DHT22;12250;50.956;4.746;2023-04-15T13:56:43;17.40;52.10
24049;DHT22;12250;50.956;4.746;2023-04-15T13:59:08;17.40;52.70
24049;DHT22;12250;50.956;4.746;2023-04-15T14:01:34;17.20;52.20
24049;DHT22;12250;50.956;4.746;2023-04-15T14:04:00;17.20;54.10
24049;DHT22;12250;50.956;4.746;2023-04-15T14:06:26;17.20;53.40
24049;DHT22;12250;50.956;4.746;2023-04-15T14:08:53;17.10;52.30
24049;DHT22;12250;50.956;4.746;2023-04-15T14:11:19;17.20;53.10
24049;DHT22;12250;50.956;4.746;2023-04-15T14:13:44;17.80;53.70
24049;DHT22;12250;50.956;4.746;2023-04-15T14:16:10;18.30;52.90
24049;DHT22;12250;50.956;4.746;2023-04-15T14:18:36;18.10;52.60
24049;DHT22;12250;50.956;4.746;2023-04-15T14:21:02;17.60;53.40
24049;DHT22;12250;50.956;4.746;2023-04-15T14:23:28;17.60;53.30
24049;DHT22;12250;50.956;4.746;2023-04-15T14:25:53;17.70;53.80
24049;DHT22;12250;50.956;4.746;2023-04-15T14:28:19;17.70;56.40
24049;DHT22;12250;50.956;4.746;2023-04-15T14:30:45;17.90;54.80
24049;DHT22;12250;50.956;4.746;2023-04-15T14:33:11;17.70;54.90
24049;DHT22;12250;50.956;4.746;2023-04-15T14:35:37;17.60;55.60
24049;DHT22;12250;50.956;4.746;2023-04-15T14:38:03;17.30;56.70
24049;DHT22;12250;50.956;4.746;2023-04-15T14:40:31;17.50;56.80
24049;DHT22;12250;50.956;4.746;2023-04-15T14:42:57;17.60;56.30
24049;DHT22;12250;50.956;4.746;2023-04-15T14:45:23;17.70;56.30
24049;DHT22;12250;50.956;4.746;2023-04-15T14:47:48;17.60;55.00
24049;DHT22;12250;50.956;4.746;2023-04-15T14:50:14;17.20;54.90
24049;DHT22;12250;50.956;4.746;2023-04-15T14:52:40;17.20;54.90
24049;DHT22;12250;50.956;4.746;2023-04-15T14:55:10;17.30;52.70
24049;DHT22;12250;50.956;4.746;2023-04-15T14:57:40;17.20;52.10
24049;DHT22;12250;50.956;4.746;2023-04-15T15:00:06;17.30;52.90
24049;DHT22;12250;50.956;4.746;2023-04-15T15:02:33;17.20;53.30
24049;DHT22;12250;50.956;4.746;2023-04-15T15:05:00;17.30;54.30
24049;DHT22;12250;50.956;4.746;2023-04-15T15:07:26;17.30;52.80
24049;DHT22;12250;50.956;4.746;2023-04-15T15:09:53;17.20;52.80
24049;DHT22;12250;50.956;4.746;2023-04-15T15:12:18;17.20;53.80
24049;DHT22;12250;50.956;4.746;2023-04-15T15:14:44;17.20;55.20
24049;DHT22;12250;50.956;4.746;2023-04-15T15:17:10;17.40;53.90
24049;DHT22;12250;50.956;4.746;2023-04-15T15:19:36;17.20;52.90
24049;DHT22;12250;50.956;4.746;2023-04-15T15:22:02;17.10;54.00
24049;DHT22;12250;50.956;4.746;2023-04-15T15:24:28;17.00;54.40
24049;DHT22;12250;50.956;4.746;2023-04-15T15:26:54;16.90;54.50
24049;DHT22;12250;50.956;4.746;2023-04-15T15:29:20;16.70;56.50
24049;DHT22;12250;50.956;4.746;2023-04-15T15:31:45;16.60;55.80
24049;DHT22;12250;50.956;4.746;2023-04-15T15:34:11;16.30;56.10
24049;DHT22;12250;50.956;4.746;2023-04-15T15:36:37;16.10;57.50
24049;DHT22;12250;50.956;4.746;2023-04-15T15:39:02;16.20;57.30
24049;DHT22;12250;50.956;4.746;2023-04-15T15:41:28;15.90;56.50
24049;DHT22;12250;50.956;4.746;2023-04-15T15:43:54;16.10;57.60
24049;DHT22;12250;50.956;4.746;2023-04-15T15:46:19;16.30;58.40
24049;DHT22;12250;50.956;4.746;2023-04-15T15:48:45;16.40;57.70